createdAt,value
2019-02-11T00:00:34.825Z,98.70
2019-02-11T00:03:01.417Z,98.90
2019-02-11T00:05:27.873Z,98.90
2019-02-11T00:07:54.255Z,98.90
2019-02-11T00:10:20.532Z,98.70
2019-02-11T00:12:46.797Z,98.60
2019-02-11T00:15:13.251Z,98.80
2019-02-11T00:17:39.633Z,98.30
2019-02-11T00:20:06.193Z,98.10
2019-02-11T00:22:32.461Z,97.60
2019-02-11T00:24:58.733Z,97.40
2019-02-11T00:27:25.123Z,96.80
2019-02-11T00:29:51.373Z,96.70
2019-02-11T00:32:17.667Z,96.00
2019-02-11T00:34:44.114Z,96.00
2019-02-11T00:37:10.415Z,95.80
2019-02-11T00:39:36.723Z,95.60
2019-02-11T00:42:03.190Z,95.50
2019-02-11T00:44:29.569Z,95.40
2019-02-11T00:46:55.966Z,95.30
2019-02-11T00:49:22.221Z,95.10
2019-02-11T00:51:48.564Z,94.70
2019-02-11T00:54:14.828Z,94.40
2019-02-11T00:56:41.100Z,94.40
2019-02-11T00:59:07.511Z,94.20
2019-02-11T01:01:33.746Z,94.10
2019-02-11T01:03:59.993Z,93.80
2019-02-11T01:06:26.383Z,93.50
2019-02-11T01:08:52.738Z,93.10
2019-02-11T01:11:19.134Z,93.20
2019-02-11T01:13:45.511Z,93.30
2019-02-11T01:16:11.865Z,93.20
2019-02-11T01:18:38.149Z,93.10
2019-02-11T01:21:04.671Z,93.50
2019-02-11T01:23:30.974Z,93.50
2019-02-11T01:25:57.317Z,93.60
2019-02-11T01:28:23.785Z,93.30
2019-02-11T01:30:50.144Z,93.40
2019-02-11T01:33:16.541Z,93.40
2019-02-11T01:35:42.785Z,93.20
2019-02-11T01:38:09.133Z,93.40
2019-02-11T01:40:35.417Z,93.40
2019-02-11T01:43:01.703Z,93.50
2019-02-11T01:45:27.946Z,93.50
2019-02-11T01:47:54.305Z,93.40
2019-02-11T01:50:20.755Z,93.50
2019-02-11T01:52:47.073Z,93.40
2019-02-11T01:55:13.439Z,93.30
2019-02-11T01:57:45.097Z,93.30
2019-02-11T02:00:12.510Z,93.50
2019-02-11T02:02:43.099Z,93.50
2019-02-11T02:05:09.607Z,93.50
2019-02-11T02:07:36.126Z,93.80
2019-02-11T02:10:08.144Z,94.00
2019-02-11T02:12:34.413Z,94.10
2019-02-11T02:15:00.678Z,94.60
2019-02-11T02:17:26.963Z,94.80
2019-02-11T02:19:53.215Z,95.00
2019-02-11T02:22:19.519Z,95.10
2019-02-11T02:24:45.971Z,95.40
2019-02-11T02:27:12.355Z,95.40
2019-02-11T02:29:38.625Z,95.40
2019-02-11T02:32:04.973Z,95.50
2019-02-11T02:34:31.276Z,95.50
2019-02-11T02:36:57.636Z,95.50
2019-02-11T02:39:24.005Z,95.40
2019-02-11T02:41:50.790Z,95.40
2019-02-11T02:44:17.340Z,95.30
2019-02-11T02:46:43.817Z,95.10
2019-02-11T02:49:10.087Z,95.00
2019-02-11T02:51:36.431Z,95.00
2019-02-11T02:54:02.949Z,94.90
2019-02-11T02:56:29.382Z,94.70
2019-02-11T02:58:56.034Z,94.70
2019-02-11T03:01:22.504Z,94.70
2019-02-11T03:03:48.920Z,94.10
2019-02-11T03:06:15.479Z,94.00
2019-02-11T03:08:41.841Z,93.70
2019-02-11T03:11:08.310Z,93.40
2019-02-11T03:13:34.735Z,92.90
2019-02-11T03:16:01.195Z,93.00
2019-02-11T03:18:27.640Z,93.20
2019-02-11T03:20:54.164Z,92.40
2019-02-11T03:23:20.503Z,92.60
2019-02-11T03:25:46.779Z,92.70
2019-02-11T03:28:13.285Z,92.60
2019-02-11T03:30:39.666Z,92.30
2019-02-11T03:33:06.227Z,92.50
2019-02-11T03:35:32.603Z,92.50
2019-02-11T03:37:58.924Z,92.40
2019-02-11T03:40:25.296Z,92.40
2019-02-11T03:42:51.673Z,92.40
2019-02-11T03:45:18.209Z,92.60
2019-02-11T03:47:44.716Z,92.90
2019-02-11T03:50:11.246Z,92.30
2019-02-11T03:52:37.751Z,92.90
2019-02-11T03:55:05.012Z,92.80
2019-02-11T03:57:31.491Z,92.80
2019-02-11T03:59:58.034Z,92.60
2019-02-11T04:02:24.629Z,92.70
2019-02-11T04:04:51.163Z,92.10
2019-02-11T04:07:17.650Z,91.60
2019-02-11T04:09:44.200Z,92.00
2019-02-11T04:12:10.607Z,91.70
2019-02-11T04:14:37.099Z,91.50
2019-02-11T04:17:03.620Z,91.50
2019-02-11T04:19:30.090Z,91.20
2019-02-11T04:22:04.975Z,91.40
2019-02-11T04:24:31.493Z,90.50
2019-02-11T04:26:58.000Z,90.40
2019-02-11T04:29:24.423Z,90.20
2019-02-11T04:31:51.094Z,89.40
2019-02-11T04:34:17.441Z,90.20
2019-02-11T04:36:43.818Z,90.10
2019-02-11T04:39:10.237Z,90.00
2019-02-11T04:41:36.538Z,89.40
2019-02-11T04:44:03.049Z,89.50
2019-02-11T04:46:29.326Z,89.60
2019-02-11T04:48:55.725Z,89.10
2019-02-11T04:51:22.102Z,88.90
2019-02-11T04:53:48.612Z,88.90
2019-02-11T04:56:14.981Z,88.80
2019-02-11T04:58:41.435Z,88.80
2019-02-11T05:01:07.917Z,88.50
2019-02-11T05:03:34.302Z,88.10
2019-02-11T05:06:00.700Z,87.60
2019-02-11T05:08:27.180Z,87.60
2019-02-11T05:10:53.601Z,87.80
2019-02-11T05:13:19.970Z,87.00
2019-02-11T05:15:46.389Z,86.90
2019-02-11T05:18:12.887Z,84.90
2019-02-11T05:20:39.365Z,84.50
2019-02-11T05:23:05.902Z,85.10
2019-02-11T05:25:32.277Z,84.60
2019-02-11T05:27:58.731Z,84.10
2019-02-11T05:30:25.105Z,84.10
2019-02-11T05:32:51.651Z,82.90
2019-02-11T05:35:18.170Z,82.10
2019-02-11T05:37:44.709Z,81.80
2019-02-11T05:40:11.223Z,82.10
2019-02-11T05:42:37.712Z,81.20
2019-02-11T05:45:06.179Z,80.60
2019-02-11T05:47:32.646Z,81.20
2019-02-11T05:49:59.079Z,81.50
2019-02-11T05:52:25.622Z,81.80
2019-02-11T05:54:52.009Z,81.50
2019-02-11T05:57:18.467Z,81.40
2019-02-11T05:59:44.882Z,81.60
2019-02-11T06:02:12.475Z,82.40
2019-02-11T06:04:38.857Z,82.30
2019-02-11T06:07:05.382Z,81.20
2019-02-11T06:09:31.883Z,82.60
2019-02-11T06:11:58.164Z,82.10
2019-02-11T06:14:24.482Z,82.80
2019-02-11T06:16:51.082Z,83.00
2019-02-11T06:19:17.554Z,83.40
2019-02-11T06:21:44.099Z,83.70
2019-02-11T06:24:10.608Z,83.70
2019-02-11T06:26:37.132Z,82.90
2019-02-11T06:29:03.437Z,83.30
2019-02-11T06:31:30.717Z,83.70
2019-02-11T06:33:57.143Z,82.50
2019-02-11T06:36:23.682Z,82.60
2019-02-11T06:38:50.146Z,82.50
2019-02-11T06:41:16.669Z,82.30
2019-02-11T06:43:43.204Z,82.60
2019-02-11T06:46:09.692Z,82.50
2019-02-11T06:48:36.023Z,81.60
2019-02-11T06:51:02.550Z,81.60
2019-02-11T06:53:29.071Z,81.40
2019-02-11T06:55:55.550Z,81.00
2019-02-11T06:58:21.990Z,80.90
2019-02-11T07:00:48.410Z,81.40
2019-02-11T07:03:14.774Z,81.30
2019-02-11T07:05:41.215Z,81.70
2019-02-11T07:08:08.077Z,80.50
2019-02-11T07:10:34.658Z,80.80
2019-02-11T07:13:01.103Z,81.20
2019-02-11T07:15:27.553Z,81.10
2019-02-11T07:17:54.043Z,81.20
2019-02-11T07:20:20.568Z,80.90
2019-02-11T07:22:47.009Z,81.80
2019-02-11T07:25:13.569Z,81.70
2019-02-11T07:27:40.245Z,81.20
2019-02-11T07:30:09.806Z,82.10
2019-02-11T07:32:36.217Z,82.10
2019-02-11T07:35:03.713Z,81.90
2019-02-11T07:37:30.230Z,81.90
2019-02-11T07:39:56.629Z,82.10
2019-02-11T07:42:25.004Z,82.00
2019-02-11T07:44:53.195Z,81.00
2019-02-11T07:47:19.638Z,80.90
2019-02-11T07:49:46.248Z,81.30
2019-02-11T07:52:12.713Z,81.10
2019-02-11T07:54:39.143Z,81.40
2019-02-11T07:57:05.564Z,80.30
2019-02-11T07:59:31.990Z,81.10
2019-02-11T08:01:58.521Z,80.30
2019-02-11T08:04:24.813Z,79.90
2019-02-11T08:06:51.445Z,79.90
2019-02-11T08:09:17.947Z,79.60
2019-02-11T08:11:44.320Z,79.80
2019-02-11T08:14:10.718Z,79.90
2019-02-11T08:16:37.137Z,80.00
2019-02-11T08:19:03.731Z,79.10
2019-02-11T08:21:30.031Z,79.50
2019-02-11T08:23:56.436Z,80.00
2019-02-11T08:26:23.120Z,79.90
2019-02-11T08:28:49.403Z,79.90
2019-02-11T08:31:15.897Z,80.00
2019-02-11T08:33:42.417Z,79.40
2019-02-11T08:36:08.818Z,79.80
2019-02-11T08:38:35.246Z,79.70
2019-02-11T08:41:01.755Z,78.50
2019-02-11T08:43:28.393Z,79.40
2019-02-11T08:45:54.878Z,79.50
2019-02-11T08:48:21.228Z,78.70
2019-02-11T08:50:47.601Z,77.70
2019-02-11T08:53:14.087Z,77.20
2019-02-11T08:55:40.439Z,77.30
2019-02-11T08:58:06.894Z,76.60
2019-02-11T09:00:33.606Z,75.90
2019-02-11T09:03:00.117Z,75.20
2019-02-11T09:05:26.501Z,74.70
2019-02-11T09:07:53.032Z,71.40
2019-02-11T09:10:19.519Z,71.70
2019-02-11T09:12:48.994Z,71.10
2019-02-11T09:15:15.441Z,71.70
2019-02-11T09:17:41.965Z,71.40
2019-02-11T09:20:09.733Z,68.90
2019-02-11T09:22:36.148Z,70.40
2019-02-11T09:25:04.088Z,71.70
2019-02-11T09:27:30.788Z,70.90
2019-02-11T09:29:57.591Z,71.30
2019-02-11T09:32:24.148Z,69.10
2019-02-11T09:34:50.602Z,70.00
2019-02-11T09:37:17.040Z,70.30
2019-02-11T09:39:43.421Z,70.40
2019-02-11T09:42:10.215Z,68.50
2019-02-11T09:44:36.764Z,69.50
2019-02-11T09:47:03.237Z,66.60
2019-02-11T09:49:29.705Z,66.60
2019-02-11T09:51:56.131Z,66.70
2019-02-11T09:54:22.429Z,65.50
2019-02-11T09:56:48.951Z,67.20
2019-02-11T09:59:15.479Z,64.70
2019-02-11T10:01:45.151Z,65.50
2019-02-11T10:04:11.468Z,66.60
2019-02-11T10:06:37.955Z,66.00
2019-02-11T10:09:05.420Z,67.60
2019-02-11T10:11:31.885Z,68.70
2019-02-11T10:13:58.498Z,65.60
2019-02-11T10:16:25.005Z,64.90
2019-02-11T10:18:51.494Z,66.40
2019-02-11T10:21:18.027Z,66.30
2019-02-11T10:23:44.609Z,63.70
2019-02-11T10:26:11.103Z,62.50
2019-02-11T10:28:37.517Z,62.30
2019-02-11T10:31:03.920Z,65.20
2019-02-11T10:33:30.321Z,63.80
2019-02-11T10:35:56.837Z,60.80
2019-02-11T10:38:23.215Z,60.70
2019-02-11T10:40:49.625Z,61.20
2019-02-11T10:43:16.109Z,62.30
2019-02-11T10:45:42.608Z,62.80
2019-02-11T10:48:09.112Z,64.80
2019-02-11T10:50:35.594Z,63.00
2019-02-11T10:53:02.138Z,62.80
2019-02-11T10:55:28.606Z,62.70
2019-02-11T10:57:55.233Z,61.70
2019-02-11T11:00:22.822Z,61.10
2019-02-11T11:02:49.290Z,61.40
2019-02-11T11:05:15.860Z,61.90
2019-02-11T11:07:42.364Z,61.60
2019-02-11T11:10:18.475Z,61.30
2019-02-11T11:12:44.985Z,60.80
2019-02-11T11:15:11.871Z,59.50
2019-02-11T11:17:38.249Z,58.50
2019-02-11T11:20:10.147Z,60.30
2019-02-11T11:22:36.587Z,60.10
2019-02-11T11:25:04.924Z,59.90
2019-02-11T11:27:31.427Z,60.90
2019-02-11T11:29:57.805Z,61.00
2019-02-11T11:32:24.359Z,62.10
2019-02-11T11:34:50.844Z,61.40
2019-02-11T11:37:17.399Z,62.30
2019-02-11T11:39:43.810Z,63.20
2019-02-11T11:42:10.319Z,64.00
2019-02-11T11:44:36.728Z,64.50
2019-02-11T11:47:04.483Z,62.70
2019-02-11T11:49:30.949Z,62.20
2019-02-11T11:51:57.372Z,62.20
2019-02-11T11:54:23.676Z,61.80
2019-02-11T11:56:50.329Z,62.20
2019-02-11T11:59:19.944Z,62.70
2019-02-11T12:01:46.418Z,61.70
2019-02-11T12:04:12.947Z,62.00
2019-02-11T12:06:39.418Z,62.20
2019-02-11T12:09:06.142Z,62.60
2019-02-11T12:11:32.527Z,63.40
2019-02-11T12:13:59.056Z,64.10
2019-02-11T12:16:25.581Z,65.10
2019-02-11T12:18:51.971Z,65.40
2019-02-11T12:21:18.408Z,66.50
2019-02-11T12:23:44.880Z,66.50
2019-02-11T12:26:11.426Z,66.20
2019-02-11T12:28:37.913Z,66.90
2019-02-11T12:31:04.333Z,64.90
2019-02-11T12:33:30.869Z,66.20
2019-02-11T12:35:57.381Z,64.20
2019-02-11T12:38:23.792Z,64.30
2019-02-11T12:40:50.141Z,65.30
2019-02-11T12:43:16.728Z,66.80
2019-02-11T12:45:43.210Z,69.50
2019-02-11T12:48:09.618Z,71.20
2019-02-11T12:50:35.922Z,72.50
2019-02-11T12:53:02.443Z,72.10
2019-02-11T12:55:28.848Z,71.40
2019-02-11T12:57:55.419Z,72.20
2019-02-11T13:00:22.869Z,73.00
2019-02-11T13:02:49.454Z,73.10
2019-02-11T13:05:16.197Z,74.00
2019-02-11T13:07:42.681Z,73.80
2019-02-11T13:10:12.879Z,73.70
2019-02-11T13:12:39.642Z,73.50
2019-02-11T13:15:08.227Z,72.00
2019-02-11T13:17:34.993Z,71.60
2019-02-11T13:20:08.536Z,70.40
2019-02-11T13:22:30.053Z,70.60
2019-02-11T13:24:56.625Z,70.70
2019-02-11T13:27:23.508Z,70.20
2019-02-11T13:29:50.010Z,69.30
2019-02-11T13:32:16.499Z,68.90
2019-02-11T13:34:42.863Z,67.90
2019-02-11T13:37:09.152Z,69.10
2019-02-11T13:39:35.670Z,67.90
2019-02-11T13:42:02.098Z,68.30
2019-02-11T13:44:28.655Z,68.50
2019-02-11T13:46:55.091Z,68.50
2019-02-11T13:49:21.729Z,70.10
2019-02-11T13:51:48.257Z,70.20
2019-02-11T13:54:17.610Z,70.90
2019-02-11T13:56:44.045Z,69.60
2019-02-11T13:59:10.746Z,69.40
2019-02-11T14:01:37.232Z,68.00
2019-02-11T14:04:03.619Z,67.50
2019-02-11T14:06:30.309Z,67.10
2019-02-11T14:08:56.653Z,68.20
2019-02-11T14:11:23.153Z,69.00
2019-02-11T14:14:01.356Z,67.90
2019-02-11T14:16:17.996Z,69.10
2019-02-11T14:18:44.409Z,69.00
2019-02-11T14:21:10.873Z,69.10
2019-02-11T14:23:37.303Z,70.20
2019-02-11T14:26:04.029Z,69.90
2019-02-11T14:28:30.547Z,69.90
2019-02-11T14:30:57.411Z,69.80
2019-02-11T14:33:23.961Z,67.40
2019-02-11T14:35:50.371Z,69.10
2019-02-11T14:38:16.838Z,68.10
2019-02-11T14:40:43.375Z,68.50
2019-02-11T14:43:09.890Z,68.20
2019-02-11T14:45:36.493Z,66.90
2019-02-11T14:48:03.189Z,64.70
2019-02-11T14:50:29.590Z,64.30
2019-02-11T14:52:56.111Z,64.60
2019-02-11T14:55:22.404Z,64.70
2019-02-11T14:57:48.853Z,64.20
2019-02-11T15:00:18.960Z,64.40
2019-02-11T15:02:45.641Z,65.10
2019-02-11T15:05:12.123Z,65.10
2019-02-11T15:07:38.546Z,65.60
2019-02-11T15:10:07.936Z,64.50
2019-02-11T15:12:34.446Z,63.70
2019-02-11T15:15:00.839Z,63.80
2019-02-11T15:17:27.338Z,63.20
2019-02-11T15:19:53.853Z,62.00
2019-02-11T15:22:20.416Z,62.40
2019-02-11T15:24:46.970Z,62.50
2019-02-11T15:27:17.359Z,62.00
2019-02-11T15:29:41.806Z,61.60
2019-02-11T15:32:08.331Z,62.40
2019-02-11T15:34:34.722Z,62.00
2019-02-11T15:37:01.135Z,62.80
2019-02-11T15:39:27.502Z,62.40
2019-02-11T15:41:54.049Z,63.10
2019-02-11T15:44:20.576Z,63.20
2019-02-11T15:46:47.009Z,62.20
2019-02-11T15:49:13.266Z,62.70
2019-02-11T15:51:39.770Z,62.10
2019-02-11T15:54:06.182Z,62.90
2019-02-11T15:56:32.749Z,61.60
2019-02-11T15:58:59.213Z,62.30
2019-02-11T16:01:25.641Z,62.20
2019-02-11T16:03:52.157Z,61.10
2019-02-11T16:06:18.658Z,61.70
2019-02-11T16:08:45.210Z,61.40
2019-02-11T16:11:11.722Z,61.10
2019-02-11T16:13:38.028Z,62.20
2019-02-11T16:16:04.432Z,62.90
2019-02-11T16:18:30.904Z,64.20
2019-02-11T16:20:57.189Z,64.00
2019-02-11T16:23:23.802Z,64.20
2019-02-11T16:25:50.321Z,65.10
2019-02-11T16:28:16.904Z,65.40
2019-02-11T16:30:43.233Z,65.50
2019-02-11T16:33:09.734Z,66.50
2019-02-11T16:35:36.137Z,67.30
2019-02-11T16:38:02.912Z,67.60
2019-02-11T16:40:29.877Z,67.70
2019-02-11T16:42:56.393Z,67.90
2019-02-11T16:45:23.027Z,68.30
2019-02-11T16:47:49.424Z,68.70
2019-02-11T16:50:15.935Z,69.10
2019-02-11T16:52:42.426Z,69.30
2019-02-11T16:55:10.028Z,69.40
2019-02-11T16:57:36.470Z,69.90
2019-02-11T17:00:06.283Z,70.10
2019-02-11T17:02:34.874Z,70.30
2019-02-11T17:05:01.389Z,70.00
2019-02-11T17:07:27.955Z,70.40
2019-02-11T17:09:54.629Z,70.50
2019-02-11T17:12:21.177Z,70.40
2019-02-11T17:14:47.559Z,70.50
2019-02-11T17:17:14.089Z,70.20
2019-02-11T17:19:40.606Z,70.30
2019-02-11T17:22:07.115Z,70.60
2019-02-11T17:24:33.684Z,70.80
2019-02-11T17:27:00.172Z,70.60
2019-02-11T17:29:27.195Z,70.90
2019-02-11T17:31:54.421Z,70.60
2019-02-11T17:34:20.937Z,71.00
2019-02-11T17:36:47.408Z,71.30
2019-02-11T17:39:13.932Z,71.30
2019-02-11T17:41:40.414Z,71.50
2019-02-11T17:44:06.918Z,71.30
2019-02-11T17:46:33.264Z,71.60
2019-02-11T17:48:59.981Z,71.80
2019-02-11T17:51:26.507Z,72.50
2019-02-11T17:53:53.091Z,73.00
2019-02-11T17:56:19.502Z,73.90
2019-02-11T17:58:46.082Z,73.80
2019-02-11T18:01:12.740Z,73.90
2019-02-11T18:03:39.224Z,74.10
2019-02-11T18:06:05.763Z,74.00
2019-02-11T18:08:32.426Z,74.60
2019-02-11T18:10:58.844Z,75.10
2019-02-11T18:13:25.165Z,75.10
2019-02-11T18:15:51.724Z,75.60
2019-02-11T18:18:18.256Z,75.00
2019-02-11T18:20:44.769Z,75.70
2019-02-11T18:23:11.285Z,75.90
2019-02-11T18:25:37.873Z,76.10
2019-02-11T18:28:04.293Z,76.20
2019-02-11T18:30:33.430Z,76.30
2019-02-11T18:32:59.959Z,76.10
2019-02-11T18:35:26.461Z,76.80
2019-02-11T18:37:52.839Z,77.00
2019-02-11T18:40:19.342Z,76.90
2019-02-11T18:42:45.840Z,77.20
2019-02-11T18:45:13.817Z,77.60
2019-02-11T18:47:40.344Z,77.80
2019-02-11T18:50:09.802Z,77.80
2019-02-11T18:52:36.288Z,77.90
2019-02-11T18:55:03.608Z,78.00
2019-02-11T18:57:30.416Z,78.20
2019-02-11T19:00:03.312Z,78.20
2019-02-11T19:02:29.889Z,78.30
2019-02-11T19:04:56.387Z,78.50
2019-02-11T19:07:22.977Z,78.60
2019-02-11T19:09:49.374Z,78.80
2019-02-11T19:12:15.798Z,78.20
2019-02-11T19:14:42.087Z,78.60
2019-02-11T19:17:08.661Z,78.70
2019-02-11T19:19:42.805Z,78.80
2019-02-11T19:22:03.413Z,79.10
2019-02-11T19:24:29.945Z,79.40
2019-02-11T19:26:56.514Z,79.30
2019-02-11T19:29:23.145Z,79.50
2019-02-11T19:31:49.468Z,79.50
2019-02-11T19:34:15.766Z,79.60
2019-02-11T19:36:42.172Z,79.10
2019-02-11T19:39:08.897Z,79.40
2019-02-11T19:41:35.384Z,79.70
2019-02-11T19:44:01.859Z,79.50
2019-02-11T19:46:28.494Z,79.70
2019-02-11T19:48:54.965Z,79.50
2019-02-11T19:51:21.421Z,79.50
2019-02-11T19:53:47.846Z,79.80
2019-02-11T19:56:14.396Z,79.70
2019-02-11T19:58:40.881Z,80.10
2019-02-11T20:01:07.434Z,80.20
2019-02-11T20:03:34.016Z,80.20
2019-02-11T20:06:00.540Z,80.40
2019-02-11T20:08:27.009Z,80.30
2019-02-11T20:10:53.627Z,79.80
2019-02-11T20:13:20.169Z,80.00
2019-02-11T20:15:47.222Z,79.90
2019-02-11T20:18:13.814Z,80.10
2019-02-11T20:20:40.375Z,79.90
2019-02-11T20:23:06.947Z,80.10
2019-02-11T20:25:33.531Z,79.90
2019-02-11T20:28:00.079Z,80.00
2019-02-11T20:30:28.324Z,80.70
2019-02-11T20:32:54.961Z,80.20
2019-02-11T20:35:21.348Z,80.60
2019-02-11T20:37:47.770Z,83.90
2019-02-11T20:40:27.969Z,86.40
2019-02-11T20:42:54.469Z,88.60
2019-02-11T20:45:26.300Z,89.20
2019-02-11T20:47:52.954Z,90.20
2019-02-11T20:50:19.488Z,91.30
2019-02-11T20:52:46.042Z,92.30
2019-02-11T20:55:13.173Z,92.40
2019-02-11T20:57:39.767Z,93.10
2019-02-11T21:00:10.563Z,93.30
2019-02-11T21:02:37.060Z,93.80
2019-02-11T21:05:06.426Z,93.80
2019-02-11T21:07:33.000Z,93.90
2019-02-11T21:09:59.469Z,94.10
2019-02-11T21:12:25.856Z,94.20
2019-02-11T21:14:52.335Z,94.50
2019-02-11T21:17:18.805Z,94.50
2019-02-11T21:19:45.421Z,94.50
2019-02-11T21:22:11.982Z,94.20
2019-02-11T21:24:38.432Z,94.50
2019-02-11T21:27:05.001Z,94.50
2019-02-11T21:29:31.435Z,94.50
2019-02-11T21:31:57.829Z,94.30
2019-02-11T21:34:24.351Z,94.20
2019-02-11T21:36:50.618Z,94.10
2019-02-11T21:39:17.045Z,94.30
2019-02-11T21:41:43.550Z,94.00
2019-02-11T21:44:09.987Z,94.30
2019-02-11T21:46:36.266Z,94.20
2019-02-11T21:49:02.750Z,93.90
2019-02-11T21:51:29.320Z,94.10
2019-02-11T21:53:55.727Z,93.90
2019-02-11T21:56:22.193Z,93.30
2019-02-11T21:58:48.619Z,93.10
2019-02-11T22:01:15.255Z,92.70
2019-02-11T22:03:41.616Z,92.30
2019-02-11T22:06:08.113Z,92.40
2019-02-11T22:08:34.552Z,92.40
2019-02-11T22:11:00.949Z,92.40
2019-02-11T22:13:27.465Z,92.30
2019-02-11T22:15:53.867Z,92.20
2019-02-11T22:18:20.448Z,91.70
2019-02-11T22:20:46.878Z,91.40
2019-02-11T22:23:13.301Z,91.30
2019-02-11T22:25:39.779Z,91.00
2019-02-11T22:28:06.361Z,90.80
2019-02-11T22:30:32.658Z,90.70
2019-02-11T22:33:00.950Z,90.50
2019-02-11T22:35:27.150Z,90.50
2019-02-11T22:37:53.730Z,90.60
2019-02-11T22:40:20.248Z,90.30
2019-02-11T22:42:46.758Z,90.20
2019-02-11T22:45:16.382Z,90.20
2019-02-11T22:47:42.903Z,90.10
2019-02-11T22:50:11.261Z,90.10
2019-02-11T22:52:37.793Z,89.90
2019-02-11T22:55:07.010Z,89.90
2019-02-11T22:57:33.333Z,90.50
2019-02-11T22:59:59.803Z,90.20
2019-02-11T23:02:26.390Z,89.80
2019-02-11T23:04:52.869Z,89.80
2019-02-11T23:07:19.390Z,89.50
2019-02-11T23:09:45.769Z,89.70
2019-02-11T23:12:12.203Z,89.40
2019-02-11T23:14:38.694Z,89.40
2019-02-11T23:17:05.211Z,90.00
2019-02-11T23:19:31.710Z,90.30
2019-02-11T23:21:57.970Z,90.10
2019-02-11T23:24:24.285Z,90.20
2019-02-11T23:26:50.717Z,91.30
2019-02-11T23:29:17.239Z,92.20
2019-02-11T23:31:43.714Z,92.90
2019-02-11T23:34:10.357Z,93.00
2019-02-11T23:36:36.879Z,92.90
2019-02-11T23:39:05.795Z,91.90
2019-02-11T23:41:32.297Z,91.50
2019-02-11T23:43:58.847Z,91.20
2019-02-11T23:46:25.398Z,91.00
2019-02-11T23:48:51.861Z,90.40
2019-02-11T23:51:18.234Z,90.00
2019-02-11T23:53:44.659Z,90.50
2019-02-11T23:56:11.181Z,91.20
2019-02-11T23:58:37.713Z,91.40
